This is the latest recevied weather packets stored in our database for station/object KC5TIL-3. If no packets are shown the sender has not sent any weather packets the latest 10 day(s).
| Time | Temp. | Humidity | Pressure | Rain* | Wind** | Luminosity | Snow |
|---|---|---|---|---|---|---|---|
| 1787680824 | 35° C | 16% | 1012.8 hPa | 0 mm | 1.34 m/s, 116° | - | - |
| 1787680523 | 35° C | 16% | 1012.8 hPa | 0 mm | 2.68 m/s, 233° | - | - |
| 1787680225 | 35° C | 16% | 1012.8 hPa | 0 mm | 2.24 m/s, 232° | - | - |
| 1787679927 | 35° C | 16% | 1013.8 hPa | 0 mm | 2.68 m/s, 221° | - | - |
| 1787679625 | 35° C | 16% | 1013.8 hPa | 0 mm | 1.79 m/s, 234° | - | - |
| 1787679327 | 34.44° C | 16% | 1013.8 hPa | 0 mm | 2.68 m/s, 216° | - | - |
| 1787679029 | 35° C | 16% | 1013.8 hPa | 0 mm | 1.34 m/s, 150° | - | - |
| 1787678728 | 34.44° C | 16% | 1013.8 hPa | 0 mm | 1.79 m/s, 234° | - | - |
| 1787678429 | 33.89° C | 17% | 1013.8 hPa | 0 mm | 1.79 m/s, 212° | - | - |
| 1787678131 | 33.89° C | 17% | 1013.8 hPa | 0 mm | 1.79 m/s, 134° | - | - |
| 1787677824 | 33.33° C | 17% | 1013.8 hPa | 0 mm | 1.79 m/s, 125° | - | - |
| 1787677526 | 33.33° C | 17% | 1013.8 hPa | 0 mm | 4.47 m/s, 214° | - | - |
| 1787677228 | 33.33° C | 17% | 1013.8 hPa | 0 mm | 2.24 m/s, 205° | - | - |
| 1787676927 | 32.78° C | 17% | 1013.8 hPa | 0 mm | 4.02 m/s, 209° | - | - |
| 1787676628 | 33.33° C | 17% | 1013.8 hPa | 0 mm | 1.79 m/s, 148° | - | - |
| 1787676330 | 32.78° C | 17% | 1013.8 hPa | 0 mm | 2.68 m/s, 214° | - | - |
| 1787676029 | 32.78° C | 17% | 1013.8 hPa | 0 mm | 3.13 m/s, 208° | - | - |
| 1787675731 | 33.33° C | 17% | 1013.8 hPa | 0 mm | 1.79 m/s, 178° | - | - |
| 1787675432 | 32.78° C | 17% | 1013.8 hPa | 0 mm | 3.13 m/s, 224° | - | - |
| 1787675126 | 32.22° C | 18% | 1013.8 hPa | 0 mm | 2.68 m/s, 224° | - | - |
| 1787674828 | 32.22° C | 18% | 1013.8 hPa | 0 mm | 3.13 m/s, 184° | - | - |
| 1787674530 | 31.67° C | 18% | 1014.8 hPa | 0 mm | 4.92 m/s, 208° | - | - |
| 1787674228 | 31.67° C | 18% | 1014.8 hPa | 0 mm | 3.13 m/s, 178° | - | - |
| 1787673930 | 31.11° C | 19% | 1014.8 hPa | 0 mm | 2.68 m/s, 223° | - | - |
| 1787673632 | 31.11° C | 19% | 1014.8 hPa | 0 mm | 3.58 m/s, 203° | - | - |
* Rain latest hour (hover to see other rain measurements)
** Current wind speed in m/s (hover to see current wind gust speed)